PWSweather.com
Personal Weather Stations
Station Observations
KCOGRAND2
Redlands, Southcamp Road & Dakota Circle, Grand Junction, CO 81507

Redlands, Southcamp Road & Dakota CircleGrand Junction, CO 81507

Lat: 39.055, Lon: -108.637

Elevation: 4870

Station Type: RadioShack WX200

High Low Average
Temperature 64.0°F17.8°C 34.3°F1.3°C 47.0°F8.3°C
Dew Point 30.0°F-1.1°C 6.3°F-14.3°C 24.4°F-4.2°C
Winds 16.0 mph 25.7 kmh Calm Calm 4.0 mph SW6.4 kmh SW
Wind Gusts 24.8 mph39.9 kmh -- 7.0 mph11.3 kmh
Humidity 74% 11% 46%
Pressure 25.07 in849.0 mb 24.86 in841.9 mb -
Precipitation 0.00 in0.0 mm - -
Hour Temp Dew Point Humidity Winds Wind Gusts Pressure Precip Precip Rate Daily Precip Total
12:04 AM 41.7°F5.4°C 25.3°F-3.7°C 52% 2.0 mph SSE3.2 kmh SSE 5.8 mph9.3 kmh 25.07 in849.0 mb 0.00 in0.0 mm 0.00 in/hr0.0 mm/hr 0.00 in0.0 mm
12:09 AM 40.6°F4.8°C 24.4°F-4.2°C 52% 1.0 mph SSE1.6 kmh SSE -- 25.07 in849.0 mb 0.00 in0.0 mm 0.00 in/hr0.0 mm/hr 0.00 in0.0 mm
12:14 AM 40.1°F4.5°C 25.2°F-3.8°C 55% Calm Calm -- 25.04 in848.0 mb 0.00 in0.0 mm 0.00 in/hr0.0 mm/hr 0.00 in0.0 mm
12:19 AM 39.7°F4.3°C 25.7°F-3.5°C 57% Calm Calm -- 25.04 in848.0 mb 0.00 in0.0 mm 0.00 in/hr0.0 mm/hr 0.00 in0.0 mm
12:24 AM 39.4°F4.1°C 25.9°F-3.4°C 58% Calm Calm -- 25.04 in848.0 mb 0.00 in0.0 mm 0.00 in/hr0.0 mm/hr 0.00 in0.0 mm
12:29 AM 39.4°F4.1°C 25.9°F-3.4°C 58% Calm Calm -- 25.07 in849.0 mb 0.00 in0.0 mm 0.00 in/hr0.0 mm/hr 0.00 in0.0 mm
12:34 AM 39.6°F4.2°C 26.8°F-2.9°C 60% Calm Calm -- 25.07 in849.0 mb 0.00 in0.0 mm 0.00 in/hr0.0 mm/hr 0.00 in0.0 mm
12:39 AM 40.3°F4.6°C 27.1°F-2.7°C 59% Calm Calm 4.0 mph6.4 kmh 25.07 in849.0 mb 0.00 in0.0 mm 0.00 in/hr0.0 mm/hr 0.00 in0.0 mm
12:44 AM 39.7°F4.3°C 26.2°F-3.2°C 58% Calm Calm 4.0 mph6.4 kmh 25.07 in849.0 mb 0.00 in0.0 mm 0.00 in/hr0.0 mm/hr 0.00 in0.0 mm
12:49 AM 40.3°F4.6°C 26.8°F-2.9°C 58% Calm Calm -- 25.07 in849.0 mb 0.00 in0.0 mm 0.00 in/hr0.0 mm/hr 0.00 in0.0 mm
12:54 AM 41.0°F5.0°C 27.0°F-2.8°C 57% Calm Calm -- 25.07 in849.0 mb 0.00 in0.0 mm 0.00 in/hr0.0 mm/hr 0.00 in0.0 mm
12:59 AM 40.6°F4.8°C 26.2°F-3.2°C 56% Calm Calm -- 25.04 in848.0 mb 0.00 in0.0 mm 0.00 in/hr0.0 mm/hr 0.00 in0.0 mm
01:04 AM 39.9°F4.4°C 25.9°F-3.4°C 57% Calm Calm -- 25.04 in848.0 mb 0.00 in0.0 mm 0.00 in/hr0.0 mm/hr 0.00 in0.0 mm
01:09 AM 40.3°F4.6°C 26.2°F-3.2°C 57% Calm Calm -- 25.04 in848.0 mb 0.00 in0.0 mm 0.00 in/hr0.0 mm/hr 0.00 in0.0 mm
01:14 AM 39.6°F4.2°C 25.5°F-3.6°C 57% 1.0 mph S1.6 kmh S 4.5 mph7.2 kmh 25.04 in848.0 mb 0.00 in0.0 mm 0.00 in/hr0.0 mm/hr 0.00 in0.0 mm
01:19 AM 38.8°F3.8°C 25.3°F-3.7°C 58% 2.0 mph S3.2 kmh S 5.8 mph9.3 kmh 25.04 in848.0 mb 0.00 in0.0 mm 0.00 in/hr0.0 mm/hr 0.00 in0.0 mm
01:24 AM 38.7°F3.7°C 26.1°F-3.3°C 60% Calm Calm 4.0 mph6.4 kmh 25.04 in848.0 mb 0.00 in0.0 mm 0.00 in/hr0.0 mm/hr 0.00 in0.0 mm
01:29 AM 38.7°F3.7°C 26.4°F-3.1°C 61% Calm Calm -- 25.04 in848.0 mb 0.00 in0.0 mm 0.00 in/hr0.0 mm/hr 0.00 in0.0 mm
01:34 AM 38.1°F3.4°C 26.2°F-3.2°C 62% Calm Calm -- 25.04 in848.0 mb 0.00 in0.0 mm 0.00 in/hr0.0 mm/hr 0.00 in0.0 mm
01:39 AM 37.8°F3.2°C 25.9°F-3.4°C 62% Calm Calm -- 25.04 in848.0 mb 0.00 in0.0 mm 0.00 in/hr0.0 mm/hr 0.00 in0.0 mm
01:44 AM 37.8°F3.2°C 26.8°F-2.9°C 64% Calm Calm -- 25.04 in848.0 mb 0.00 in0.0 mm 0.00 in/hr0.0 mm/hr 0.00 in0.0 mm
01:49 AM 37.9°F3.3°C 27.3°F-2.6°C 65% Calm Calm -- 25.04 in848.0 mb 0.00 in0.0 mm 0.00 in/hr0.0 mm/hr 0.00 in0.0 mm
01:54 AM 38.5°F3.6°C 27.7°F-2.4°C 65% Calm Calm -- 25.04 in848.0 mb 0.00 in0.0 mm 0.00 in/hr0.0 mm/hr 0.00 in0.0 mm
01:59 AM 40.5°F4.7°C 28.9°F-1.7°C 63% Calm Calm 2.7 mph4.3 kmh 25.04 in848.0 mb 0.00 in0.0 mm 0.00 in/hr0.0 mm/hr 0.00 in0.0 mm
02:04 AM 41.7°F5.4°C 28.4°F-2.0°C 59% Calm Calm 3.1 mph5.0 kmh 25.04 in848.0 mb 0.00 in0.0 mm 0.00 in/hr0.0 mm/hr 0.00 in0.0 mm
02:09 AM 42.3°F5.7°C 26.8°F-2.9°C 54% Calm Calm 5.4 mph8.7 kmh 25.04 in848.0 mb 0.00 in0.0 mm 0.00 in/hr0.0 mm/hr 0.00 in0.0 mm
02:14 AM 42.1°F5.6°C 26.2°F-3.2°C 53% 3.0 mph E4.8 kmh E 7.8 mph12.6 kmh 25.04 in848.0 mb 0.00 in0.0 mm 0.00 in/hr0.0 mm/hr 0.00 in0.0 mm
02:19 AM 41.9°F5.5°C 26.1°F-3.3°C 53% 5.0 mph E8.0 kmh E 6.9 mph11.1 kmh 25.04 in848.0 mb 0.00 in0.0 mm 0.00 in/hr0.0 mm/hr 0.00 in0.0 mm
02:24 AM 40.6°F4.8°C 24.8°F-4.0°C 53% 2.0 mph ESE3.2 kmh ESE 5.8 mph9.3 kmh 25.04 in848.0 mb 0.00 in0.0 mm 0.00 in/hr0.0 mm/hr 0.00 in0.0 mm
02:29 AM 39.7°F4.3°C 25.0°F-3.9°C 55% Calm Calm -- 25.04 in848.0 mb 0.00 in0.0 mm 0.00 in/hr0.0 mm/hr 0.00 in0.0 mm
02:34 AM 38.8°F3.8°C 24.4°F-4.2°C 56% Calm Calm -- 25.04 in848.0 mb 0.00 in0.0 mm 0.00 in/hr0.0 mm/hr 0.00 in0.0 mm
02:39 AM 38.3°F3.5°C 24.8°F-4.0°C 58% Calm Calm -- 25.04 in848.0 mb 0.00 in0.0 mm 0.00 in/hr0.0 mm/hr 0.00 in0.0 mm
02:44 AM 37.9°F3.3°C 25.3°F-3.7°C 60% Calm Calm -- 25.04 in848.0 mb 0.00 in0.0 mm 0.00 in/hr0.0 mm/hr 0.00 in0.0 mm
02:49 AM 37.8°F3.2°C 25.9°F-3.4°C 62% Calm Calm -- 25.04 in848.0 mb 0.00 in0.0 mm 0.00 in/hr0.0 mm/hr 0.00 in0.0 mm
02:54 AM 37.2°F2.9°C 25.9°F-3.4°C 63% Calm Calm -- 25.04 in848.0 mb 0.00 in0.0 mm 0.00 in/hr0.0 mm/hr 0.00 in0.0 mm
02:59 AM 37.2°F2.9°C 26.2°F-3.2°C 64% Calm Calm -- 25.04 in848.0 mb 0.00 in0.0 mm 0.00 in/hr0.0 mm/hr 0.00 in0.0 mm
03:04 AM 37.6°F3.1°C 27.0°F-2.8°C 65% Calm Calm -- 25.04 in848.0 mb 0.00 in0.0 mm 0.00 in/hr0.0 mm/hr 0.00 in0.0 mm
03:09 AM 37.8°F3.2°C 27.5°F-2.5°C 66% Calm Calm -- 25.04 in848.0 mb 0.00 in0.0 mm 0.00 in/hr0.0 mm/hr 0.00 in0.0 mm
03:14 AM 37.0°F2.8°C 26.1°F-3.3°C 64% Calm Calm 2.7 mph4.3 kmh 25.01 in846.9 mb 0.00 in0.0 mm 0.00 in/hr0.0 mm/hr 0.00 in0.0 mm
03:19 AM 37.2°F2.9°C 27.0°F-2.8°C 66% Calm Calm 2.7 mph4.3 kmh 25.01 in846.9 mb 0.00 in0.0 mm 0.00 in/hr0.0 mm/hr 0.00 in0.0 mm
03:24 AM 37.2°F2.9°C 27.0°F-2.8°C 66% Calm Calm -- 25.01 in846.9 mb 0.00 in0.0 mm 0.00 in/hr0.0 mm/hr 0.00 in0.0 mm
03:29 AM 37.4°F3.0°C 27.1°F-2.7°C 66% Calm Calm -- 25.01 in846.9 mb 0.00 in0.0 mm 0.00 in/hr0.0 mm/hr 0.00 in0.0 mm
03:34 AM 37.0°F2.8°C 26.8°F-2.9°C 66% Calm Calm -- 25.01 in846.9 mb 0.00 in0.0 mm 0.00 in/hr0.0 mm/hr 0.00 in0.0 mm
03:39 AM 38.5°F3.6°C 28.6°F-1.9°C 67% Calm Calm 4.0 mph6.4 kmh 25.01 in846.9 mb 0.00 in0.0 mm 0.00 in/hr0.0 mm/hr 0.00 in0.0 mm
03:44 AM 39.9°F4.4°C 28.8°F-1.8°C 64% 1.0 mph SE1.6 kmh SE 4.9 mph7.9 kmh 25.01 in846.9 mb 0.00 in0.0 mm 0.00 in/hr0.0 mm/hr 0.00 in0.0 mm
03:50 AM 39.7°F4.3°C 26.2°F-3.2°C 58% 2.0 mph E3.2 kmh E 5.8 mph9.3 kmh 25.01 in846.9 mb 0.00 in0.0 mm 0.00 in/hr0.0 mm/hr 0.00 in0.0 mm
03:55 AM 39.7°F4.3°C 26.2°F-3.2°C 58% 2.0 mph E3.2 kmh E 6.3 mph10.1 kmh 25.01 in846.9 mb 0.00 in0.0 mm 0.00 in/hr0.0 mm/hr 0.00 in0.0 mm
04:00 AM 39.7°F4.3°C 25.7°F-3.5°C 57% 1.0 mph ESE1.6 kmh ESE 4.9 mph7.9 kmh 25.01 in846.9 mb 0.00 in0.0 mm 0.00 in/hr0.0 mm/hr 0.00 in0.0 mm
04:05 AM 38.7°F3.7°C 25.2°F-3.8°C 58% Calm Calm 4.0 mph6.4 kmh 25.01 in846.9 mb 0.00 in0.0 mm 0.00 in/hr0.0 mm/hr 0.00 in0.0 mm
04:10 AM 38.3°F3.5°C 25.2°F-3.8°C 59% Calm Calm 4.0 mph6.4 kmh 25.01 in846.9 mb 0.00 in0.0 mm 0.00 in/hr0.0 mm/hr 0.00 in0.0 mm
04:15 AM 37.9°F3.3°C 26.1°F-3.3°C 62% Calm Calm 5.4 mph8.7 kmh 25.01 in846.9 mb 0.00 in0.0 mm 0.00 in/hr0.0 mm/hr 0.00 in0.0 mm
04:20 AM 37.8°F3.2°C 26.8°F-2.9°C 64% 1.0 mph SE1.6 kmh SE 4.9 mph7.9 kmh 25.01 in846.9 mb 0.00 in0.0 mm 0.00 in/hr0.0 mm/hr 0.00 in0.0 mm
04:25 AM 38.7°F3.7°C 27.5°F-2.5°C 64% 2.0 mph NNE3.2 kmh NNE 9.6 mph15.4 kmh 25.01 in846.9 mb 0.00 in0.0 mm 0.00 in/hr0.0 mm/hr 0.00 in0.0 mm
04:30 AM 39.2°F4.0°C 27.0°F-2.8°C 61% 2.0 mph N3.2 kmh N 3.1 mph5.0 kmh 25.01 in846.9 mb 0.00 in0.0 mm 0.00 in/hr0.0 mm/hr 0.00 in0.0 mm
04:35 AM 39.2°F4.0°C 26.1°F-3.3°C 59% Calm Calm -- 25.01 in846.9 mb 0.00 in0.0 mm 0.00 in/hr0.0 mm/hr 0.00 in0.0 mm
04:40 AM 38.8°F3.8°C 26.2°F-3.2°C 60% Calm Calm -- 25.01 in846.9 mb 0.00 in0.0 mm 0.00 in/hr0.0 mm/hr 0.00 in0.0 mm
04:45 AM 38.5°F3.6°C 25.9°F-3.4°C 60% Calm Calm -- 25.01 in846.9 mb 0.00 in0.0 mm 0.00 in/hr0.0 mm/hr 0.00 in0.0 mm
04:50 AM 38.1°F3.4°C 25.9°F-3.4°C 61% Calm Calm 4.5 mph7.2 kmh 25.01 in846.9 mb 0.00 in0.0 mm 0.00 in/hr0.0 mm/hr 0.00 in0.0 mm
04:55 AM 37.4°F3.0°C 26.1°F-3.3°C 63% Calm Calm 3.1 mph5.0 kmh 25.01 in846.9 mb 0.00 in0.0 mm 0.00 in/hr0.0 mm/hr 0.00 in0.0 mm
05:00 AM 37.4°F3.0°C 26.1°F-3.3°C 63% Calm Calm -- 25.01 in846.9 mb 0.00 in0.0 mm 0.00 in/hr0.0 mm/hr 0.00 in0.0 mm
05:05 AM 37.6°F3.1°C 26.6°F-3.0°C 64% Calm Calm -- 25.01 in846.9 mb 0.00 in0.0 mm 0.00 in/hr0.0 mm/hr 0.00 in0.0 mm
05:10 AM 37.9°F3.3°C 26.8°F-2.9°C 64% Calm Calm -- 25.01 in846.9 mb 0.00 in0.0 mm 0.00 in/hr0.0 mm/hr 0.00 in0.0 mm
05:15 AM 37.6°F3.1°C 26.6°F-3.0°C 64% Calm Calm -- 24.98 in845.9 mb 0.00 in0.0 mm 0.00 in/hr0.0 mm/hr 0.00 in0.0 mm
05:20 AM 37.2°F2.9°C 26.2°F-3.2°C 64% Calm Calm -- 24.98 in845.9 mb 0.00 in0.0 mm 0.00 in/hr0.0 mm/hr 0.00 in0.0 mm
05:25 AM 37.8°F3.2°C 27.1°F-2.7°C 65% Calm Calm -- 24.98 in845.9 mb 0.00 in0.0 mm 0.00 in/hr0.0 mm/hr 0.00 in0.0 mm
05:30 AM 38.1°F3.4°C 27.5°F-2.5°C 65% Calm Calm 3.1 mph5.0 kmh 24.98 in845.9 mb 0.00 in0.0 mm 0.00 in/hr0.0 mm/hr 0.00 in0.0 mm
05:35 AM 39.7°F4.3°C 27.3°F-2.6°C 61% 1.0 mph E1.6 kmh E 4.0 mph6.4 kmh 24.98 in845.9 mb 0.00 in0.0 mm 0.00 in/hr0.0 mm/hr 0.00 in0.0 mm
05:40 AM 39.7°F4.3°C 26.2°F-3.2°C 58% 1.0 mph E1.6 kmh E 4.0 mph6.4 kmh 24.98 in845.9 mb 0.00 in0.0 mm 0.00 in/hr0.0 mm/hr 0.00 in0.0 mm
05:45 AM 38.3°F3.5°C 24.4°F-4.2°C 57% Calm Calm 2.7 mph4.3 kmh 24.98 in845.9 mb 0.00 in0.0 mm 0.00 in/hr0.0 mm/hr 0.00 in0.0 mm
05:50 AM 37.6°F3.1°C 24.6°F-4.1°C 59% Calm Calm -- 24.98 in845.9 mb 0.00 in0.0 mm 0.00 in/hr0.0 mm/hr 0.00 in0.0 mm
05:55 AM 38.7°F3.7°C 26.1°F-3.3°C 60% Calm Calm -- 24.98 in845.9 mb 0.00 in0.0 mm 0.00 in/hr0.0 mm/hr 0.00 in0.0 mm
06:00 AM 37.9°F3.3°C 25.3°F-3.7°C 60% Calm Calm -- 24.98 in845.9 mb 0.00 in0.0 mm 0.00 in/hr0.0 mm/hr 0.00 in0.0 mm
06:05 AM 38.8°F3.8°C 26.6°F-3.0°C 61% Calm Calm 4.0 mph6.4 kmh 24.98 in845.9 mb 0.00 in0.0 mm 0.00 in/hr0.0 mm/hr 0.00 in0.0 mm
06:10 AM 38.7°F3.7°C 26.1°F-3.3°C 60% Calm Calm 3.6 mph5.8 kmh 24.98 in845.9 mb 0.00 in0.0 mm 0.00 in/hr0.0 mm/hr 0.00 in0.0 mm
06:15 AM 38.8°F3.8°C 26.2°F-3.2°C 60% 1.0 mph E1.6 kmh E 4.5 mph7.2 kmh 24.98 in845.9 mb 0.00 in0.0 mm 0.00 in/hr0.0 mm/hr 0.00 in0.0 mm
06:20 AM 36.9°F2.7°C 23.9°F-4.5°C 59% 3.0 mph ESE4.8 kmh ESE 5.4 mph8.7 kmh 24.98 in845.9 mb 0.00 in0.0 mm 0.00 in/hr0.0 mm/hr 0.00 in0.0 mm
06:25 AM 35.6°F2.0°C 23.9°F-4.5°C 62% 2.0 mph SE3.2 kmh SE 4.5 mph7.2 kmh 24.98 in845.9 mb 0.00 in0.0 mm 0.00 in/hr0.0 mm/hr 0.00 in0.0 mm
06:30 AM 36.0°F2.2°C 25.3°F-3.7°C 65% Calm Calm -- 24.98 in845.9 mb 0.00 in0.0 mm 0.00 in/hr0.0 mm/hr 0.00 in0.0 mm
06:35 AM 36.0°F2.2°C 26.1°F-3.3°C 67% Calm Calm -- 24.98 in845.9 mb 0.00 in0.0 mm 0.00 in/hr0.0 mm/hr 0.00 in0.0 mm
06:40 AM 35.1°F1.7°C 25.5°F-3.6°C 68% Calm Calm -- 24.98 in845.9 mb 0.00 in0.0 mm 0.00 in/hr0.0 mm/hr 0.00 in0.0 mm
06:45 AM 34.3°F1.3°C 25.5°F-3.6°C 70% Calm Calm -- 24.98 in845.9 mb 0.00 in0.0 mm 0.00 in/hr0.0 mm/hr 0.00 in0.0 mm
06:50 AM 34.3°F1.3°C 25.9°F-3.4°C 71% Calm Calm -- 24.98 in845.9 mb 0.00 in0.0 mm 0.00 in/hr0.0 mm/hr 0.00 in0.0 mm
06:55 AM 34.5°F1.4°C 26.4°F-3.1°C 72% Calm Calm -- 24.98 in845.9 mb 0.00 in0.0 mm 0.00 in/hr0.0 mm/hr 0.00 in0.0 mm
07:00 AM 34.5°F1.4°C 26.8°F-2.9°C 73% Calm Calm -- 24.98 in845.9 mb 0.00 in0.0 mm 0.00 in/hr0.0 mm/hr 0.00 in0.0 mm
07:05 AM 34.3°F1.3°C 26.6°F-3.0°C 73% Calm Calm -- 24.98 in845.9 mb 0.00 in0.0 mm 0.00 in/hr0.0 mm/hr 0.00 in0.0 mm
07:10 AM 35.1°F1.7°C 27.7°F-2.4°C 74% Calm Calm -- 24.98 in845.9 mb 0.00 in0.0 mm 0.00 in/hr0.0 mm/hr 0.00 in0.0 mm
07:15 AM 36.1°F2.3°C 28.6°F-1.9°C 74% Calm Calm -- 24.98 in845.9 mb 0.00 in0.0 mm 0.00 in/hr0.0 mm/hr 0.00 in0.0 mm
07:20 AM 37.6°F3.1°C 29.7°F-1.3°C 73% Calm Calm -- 24.98 in845.9 mb 0.00 in0.0 mm 0.00 in/hr0.0 mm/hr 0.00 in0.0 mm
07:25 AM 36.7°F2.6°C 27.5°F-2.5°C 69% Calm Calm -- 24.98 in845.9 mb 0.00 in0.0 mm 0.00 in/hr0.0 mm/hr 0.00 in0.0 mm
07:30 AM 37.0°F2.8°C 28.2°F-2.1°C 70% Calm Calm -- 24.98 in845.9 mb 0.00 in0.0 mm 0.00 in/hr0.0 mm/hr 0.00 in0.0 mm
07:35 AM 37.8°F3.2°C 28.9°F-1.7°C 70% Calm Calm -- 24.98 in845.9 mb 0.00 in0.0 mm 0.00 in/hr0.0 mm/hr 0.00 in0.0 mm
07:40 AM 37.6°F3.1°C 27.7°F-2.4°C 67% Calm Calm -- 24.98 in845.9 mb 0.00 in0.0 mm 0.00 in/hr0.0 mm/hr 0.00 in0.0 mm
07:45 AM 37.9°F3.3°C 28.0°F-2.2°C 67% Calm Calm -- 24.98 in845.9 mb 0.00 in0.0 mm 0.00 in/hr0.0 mm/hr 0.00 in0.0 mm
07:50 AM 39.4°F4.1°C 28.9°F-1.7°C 66% Calm Calm -- 24.98 in845.9 mb 0.00 in0.0 mm 0.00 in/hr0.0 mm/hr 0.00 in0.0 mm
07:55 AM 40.1°F4.5°C 29.3°F-1.5°C 65% Calm Calm -- 24.98 in845.9 mb 0.00 in0.0 mm 0.00 in/hr0.0 mm/hr 0.00 in0.0 mm
08:00 AM 40.5°F4.7°C 28.4°F-2.0°C 62% Calm Calm -- 24.98 in845.9 mb 0.00 in0.0 mm 0.00 in/hr0.0 mm/hr 0.00 in0.0 mm
08:05 AM 41.4°F5.2°C 28.9°F-1.7°C 61% Calm Calm -- 24.98 in845.9 mb 0.00 in0.0 mm 0.00 in/hr0.0 mm/hr 0.00 in0.0 mm
08:10 AM 39.9°F4.4°C 27.5°F-2.5°C 61% 2.0 mph SW3.2 kmh SW 7.8 mph12.6 kmh 24.98 in845.9 mb 0.00 in0.0 mm 0.00 in/hr0.0 mm/hr 0.00 in0.0 mm
08:15 AM 39.4°F4.1°C 27.9°F-2.3°C 63% 4.0 mph W6.4 kmh W 6.9 mph11.1 kmh 24.98 in845.9 mb 0.00 in0.0 mm 0.00 in/hr0.0 mm/hr 0.00 in0.0 mm
08:20 AM 39.9°F4.4°C 28.8°F-1.8°C 64% 4.0 mph W6.4 kmh W 6.3 mph10.1 kmh 24.98 in845.9 mb 0.00 in0.0 mm 0.00 in/hr0.0 mm/hr 0.00 in0.0 mm
08:25 AM 40.6°F4.8°C 29.1°F-1.6°C 63% 2.0 mph W3.2 kmh W 4.0 mph6.4 kmh 24.98 in845.9 mb 0.00 in0.0 mm 0.00 in/hr0.0 mm/hr 0.00 in0.0 mm
08:30 AM 42.4°F5.8°C 30.0°F-1.1°C 61% 1.0 mph W1.6 kmh W 3.1 mph5.0 kmh 24.98 in845.9 mb 0.00 in0.0 mm 0.00 in/hr0.0 mm/hr 0.00 in0.0 mm
08:35 AM 43.7°F6.5°C 29.8°F-1.2°C 58% Calm Calm 3.1 mph5.0 kmh 24.98 in845.9 mb 0.00 in0.0 mm 0.00 in/hr0.0 mm/hr 0.00 in0.0 mm
08:40 AM 45.1°F7.3°C 30.0°F-1.1°C 55% 1.0 mph W1.6 kmh W 4.0 mph6.4 kmh 24.98 in845.9 mb 0.00 in0.0 mm 0.00 in/hr0.0 mm/hr 0.00 in0.0 mm
08:45 AM 45.5°F7.5°C 28.4°F-2.0°C 51% 1.0 mph W1.6 kmh W 3.6 mph5.8 kmh 24.95 in844.9 mb 0.00 in0.0 mm 0.00 in/hr0.0 mm/hr 0.00 in0.0 mm
08:50 AM 46.0°F7.8°C 28.4°F-2.0°C 50% 2.0 mph W3.2 kmh W 6.9 mph11.1 kmh 24.95 in844.9 mb 0.00 in0.0 mm 0.00 in/hr0.0 mm/hr 0.00 in0.0 mm
08:55 AM 46.8°F8.2°C 28.0°F-2.2°C 48% 2.0 mph W3.2 kmh W 3.6 mph5.8 kmh 24.95 in844.9 mb 0.00 in0.0 mm 0.00 in/hr0.0 mm/hr 0.00 in0.0 mm
09:00 AM 47.5°F8.6°C 28.2°F-2.1°C 47% Calm Calm 4.0 mph6.4 kmh 24.98 in845.9 mb 0.00 in0.0 mm 0.00 in/hr0.0 mm/hr 0.00 in0.0 mm
09:05 AM 48.4°F9.1°C 28.0°F-2.2°C 45% Calm Calm 2.7 mph4.3 kmh 24.98 in845.9 mb 0.00 in0.0 mm 0.00 in/hr0.0 mm/hr 0.00 in0.0 mm
09:10 AM 48.7°F9.3°C 27.3°F-2.6°C 43% 1.0 mph W1.6 kmh W 3.6 mph5.8 kmh 24.98 in845.9 mb 0.00 in0.0 mm 0.00 in/hr0.0 mm/hr 0.00 in0.0 mm
09:15 AM 48.9°F9.4°C 26.2°F-3.2°C 41% 2.0 mph NW3.2 kmh NW 4.5 mph7.2 kmh 24.95 in844.9 mb 0.00 in0.0 mm 0.00 in/hr0.0 mm/hr 0.00 in0.0 mm
09:20 AM 48.4°F9.1°C 25.2°F-3.8°C 40% 3.0 mph E4.8 kmh E 5.8 mph9.3 kmh 24.95 in844.9 mb 0.00 in0.0 mm 0.00 in/hr0.0 mm/hr 0.00 in0.0 mm
09:25 AM 49.3°F9.6°C 25.3°F-3.7°C 39% 3.0 mph E4.8 kmh E 4.5 mph7.2 kmh 24.95 in844.9 mb 0.00 in0.0 mm 0.00 in/hr0.0 mm/hr 0.00 in0.0 mm
09:30 AM 49.5°F9.7°C 25.0°F-3.9°C 38% 2.0 mph E3.2 kmh E 7.4 mph11.9 kmh 24.95 in844.9 mb 0.00 in0.0 mm 0.00 in/hr0.0 mm/hr 0.00 in0.0 mm
09:35 AM 50.0°F10.0°C 24.8°F-4.0°C 37% 4.0 mph SE6.4 kmh SE 6.9 mph11.1 kmh 24.95 in844.9 mb 0.00 in0.0 mm 0.00 in/hr0.0 mm/hr 0.00 in0.0 mm
09:40 AM 50.4°F10.2°C 25.2°F-3.8°C 37% 4.0 mph SE6.4 kmh SE 7.4 mph11.9 kmh 24.95 in844.9 mb 0.00 in0.0 mm 0.00 in/hr0.0 mm/hr 0.00 in0.0 mm
09:45 AM 50.2°F10.1°C 25.0°F-3.9°C 37% 4.0 mph ESE6.4 kmh ESE 7.8 mph12.6 kmh 24.95 in844.9 mb 0.00 in0.0 mm 0.00 in/hr0.0 mm/hr 0.00 in0.0 mm
09:50 AM 51.1°F10.6°C 25.7°F-3.5°C 37% 4.0 mph E6.4 kmh E 6.7 mph10.8 kmh 24.95 in844.9 mb 0.00 in0.0 mm 0.00 in/hr0.0 mm/hr 0.00 in0.0 mm
09:55 AM 51.3°F10.7°C 25.2°F-3.8°C 36% 4.0 mph ESE6.4 kmh ESE 6.3 mph10.1 kmh 24.95 in844.9 mb 0.00 in0.0 mm 0.00 in/hr0.0 mm/hr 0.00 in0.0 mm
10:01 AM 50.9°F10.5°C 25.0°F-3.9°C 36% 4.0 mph E6.4 kmh E 5.8 mph9.3 kmh 24.95 in844.9 mb 0.00 in0.0 mm 0.00 in/hr0.0 mm/hr 0.00 in0.0 mm
10:06 AM 51.4°F10.8°C 25.3°F-3.7°C 36% 4.0 mph E6.4 kmh E 6.7 mph10.8 kmh 24.95 in844.9 mb 0.00 in0.0 mm 0.00 in/hr0.0 mm/hr 0.00 in0.0 mm
10:11 AM 51.4°F10.8°C 25.3°F-3.7°C 36% 4.0 mph SE6.4 kmh SE 6.7 mph10.8 kmh 24.95 in844.9 mb 0.00 in0.0 mm 0.00 in/hr0.0 mm/hr 0.00 in0.0 mm
10:16 AM 51.6°F10.9°C 24.8°F-4.0°C 35% 4.0 mph SE6.4 kmh SE 7.8 mph12.6 kmh 24.95 in844.9 mb 0.00 in0.0 mm 0.00 in/hr0.0 mm/hr 0.00 in0.0 mm
10:21 AM 51.8°F11.0°C 24.3°F-4.3°C 34% 4.0 mph SE6.4 kmh SE 6.3 mph10.1 kmh 24.95 in844.9 mb 0.00 in0.0 mm 0.00 in/hr0.0 mm/hr 0.00 in0.0 mm
10:26 AM 52.9°F11.6°C 25.3°F-3.7°C 34% 4.0 mph ESE6.4 kmh ESE 5.8 mph9.3 kmh 24.95 in844.9 mb 0.00 in0.0 mm 0.00 in/hr0.0 mm/hr 0.00 in0.0 mm
10:31 AM 53.6°F12.0°C 25.2°F-3.8°C 33% 3.0 mph E4.8 kmh E 5.8 mph9.3 kmh 24.92 in843.9 mb 0.00 in0.0 mm 0.00 in/hr0.0 mm/hr 0.00 in0.0 mm
10:36 AM 53.6°F12.0°C 23.7°F-4.6°C 31% 2.0 mph E3.2 kmh E 4.9 mph7.9 kmh 24.92 in843.9 mb 0.00 in0.0 mm 0.00 in/hr0.0 mm/hr 0.00 in0.0 mm
10:41 AM 54.5°F12.5°C 25.3°F-3.7°C 32% 3.0 mph E4.8 kmh E 5.4 mph8.7 kmh 24.92 in843.9 mb 0.00 in0.0 mm 0.00 in/hr0.0 mm/hr 0.00 in0.0 mm
10:46 AM 53.2°F11.8°C 23.4°F-4.8°C 31% 4.0 mph E6.4 kmh E 5.8 mph9.3 kmh 24.92 in843.9 mb 0.00 in0.0 mm 0.00 in/hr0.0 mm/hr 0.00 in0.0 mm
10:51 AM 54.1°F12.3°C 24.3°F-4.3°C 31% 3.0 mph E4.8 kmh E 4.9 mph7.9 kmh 24.92 in843.9 mb 0.00 in0.0 mm 0.00 in/hr0.0 mm/hr 0.00 in0.0 mm
10:56 AM 55.4°F13.0°C 24.4°F-4.2°C 30% 3.0 mph E4.8 kmh E 5.8 mph9.3 kmh 24.92 in843.9 mb 0.00 in0.0 mm 0.00 in/hr0.0 mm/hr 0.00 in0.0 mm
11:01 AM 54.7°F12.6°C 23.9°F-4.5°C 30% 3.0 mph E4.8 kmh E 6.9 mph11.1 kmh 24.92 in843.9 mb 0.00 in0.0 mm 0.00 in/hr0.0 mm/hr 0.00 in0.0 mm
11:06 AM 54.3°F12.4°C 23.5°F-4.7°C 30% 4.0 mph NE6.4 kmh NE 7.8 mph12.6 kmh 24.92 in843.9 mb 0.00 in0.0 mm 0.00 in/hr0.0 mm/hr 0.00 in0.0 mm
11:11 AM 54.9°F12.7°C 23.2°F-4.9°C 29% 4.0 mph NW6.4 kmh NW 7.8 mph12.6 kmh 24.92 in843.9 mb 0.00 in0.0 mm 0.00 in/hr0.0 mm/hr 0.00 in0.0 mm
11:16 AM 55.2°F12.9°C 23.5°F-4.7°C 29% 4.0 mph NW6.4 kmh NW 9.2 mph14.8 kmh 24.92 in843.9 mb 0.00 in0.0 mm 0.00 in/hr0.0 mm/hr 0.00 in0.0 mm
11:21 AM 55.4°F13.0°C 24.4°F-4.2°C 30% 5.0 mph NW8.0 kmh NW 9.2 mph14.8 kmh 24.92 in843.9 mb 0.00 in0.0 mm 0.00 in/hr0.0 mm/hr 0.00 in0.0 mm
11:26 AM 55.9°F13.3°C 28.0°F-2.2°C 34% 5.0 mph NW8.0 kmh NW 8.3 mph13.4 kmh 24.92 in843.9 mb 0.00 in0.0 mm 0.00 in/hr0.0 mm/hr 0.00 in0.0 mm
11:31 AM 55.8°F13.2°C 28.6°F-1.9°C 35% 6.0 mph NW9.7 kmh NW 9.6 mph15.4 kmh 24.92 in843.9 mb 0.00 in0.0 mm 0.00 in/hr0.0 mm/hr 0.00 in0.0 mm
11:36 AM 55.8°F13.2°C 28.6°F-1.9°C 35% 6.0 mph NW9.7 kmh NW 9.2 mph14.8 kmh 24.92 in843.9 mb 0.00 in0.0 mm 0.00 in/hr0.0 mm/hr 0.00 in0.0 mm
11:41 AM 55.9°F13.3°C 25.7°F-3.5°C 31% 6.0 mph NW9.7 kmh NW 8.7 mph14.0 kmh 24.92 in843.9 mb 0.00 in0.0 mm 0.00 in/hr0.0 mm/hr 0.00 in0.0 mm
11:46 AM 55.9°F13.3°C 24.1°F-4.4°C 29% 7.0 mph NW11.3 kmh NW 11.0 mph17.7 kmh 24.89 in842.9 mb 0.00 in0.0 mm 0.00 in/hr0.0 mm/hr 0.00 in0.0 mm
11:51 AM 55.9°F13.3°C 24.1°F-4.4°C 29% 8.0 mph NNW12.9 kmh NNW 11.6 mph18.7 kmh 24.89 in842.9 mb 0.00 in0.0 mm 0.00 in/hr0.0 mm/hr 0.00 in0.0 mm
11:56 AM 55.9°F13.3°C 24.1°F-4.4°C 29% 8.0 mph NW12.9 kmh NW 11.0 mph17.7 kmh 24.89 in842.9 mb 0.00 in0.0 mm 0.00 in/hr0.0 mm/hr 0.00 in0.0 mm
12:01 PM 56.7°F13.7°C 24.8°F-4.0°C 29% 7.0 mph NW11.3 kmh NW 10.5 mph16.9 kmh 24.89 in842.9 mb 0.00 in0.0 mm 0.00 in/hr0.0 mm/hr 0.00 in0.0 mm
12:06 PM 56.7°F13.7°C 24.8°F-4.0°C 29% 6.0 mph NW9.7 kmh NW 10.1 mph16.3 kmh 24.89 in842.9 mb 0.00 in0.0 mm 0.00 in/hr0.0 mm/hr 0.00 in0.0 mm
12:11 PM 56.8°F13.8°C 24.1°F-4.4°C 28% 6.0 mph NW9.7 kmh NW 9.2 mph14.8 kmh 24.89 in842.9 mb 0.00 in0.0 mm 0.00 in/hr0.0 mm/hr 0.00 in0.0 mm
12:16 PM 57.2°F14.0°C 24.4°F-4.2°C 28% 6.0 mph NW9.7 kmh NW 12.5 mph20.1 kmh 24.89 in842.9 mb 0.00 in0.0 mm 0.00 in/hr0.0 mm/hr 0.00 in0.0 mm
12:21 PM 57.2°F14.0°C 24.4°F-4.2°C 28% 7.0 mph NW11.3 kmh NW 11.0 mph17.7 kmh 24.89 in842.9 mb 0.00 in0.0 mm 0.00 in/hr0.0 mm/hr 0.00 in0.0 mm
12:26 PM 57.2°F14.0°C 23.5°F-4.7°C 27% 8.0 mph NW12.9 kmh NW 13.0 mph20.9 kmh 24.89 in842.9 mb 0.00 in0.0 mm 0.00 in/hr0.0 mm/hr 0.00 in0.0 mm
12:31 PM 57.2°F14.0°C 22.6°F-5.2°C 26% 8.0 mph NW12.9 kmh NW 11.2 mph18.0 kmh 24.89 in842.9 mb 0.00 in0.0 mm 0.00 in/hr0.0 mm/hr 0.00 in0.0 mm
12:36 PM 57.4°F14.1°C 23.7°F-4.6°C 27% 9.0 mph NW14.5 kmh NW 15.2 mph24.5 kmh 24.89 in842.9 mb 0.00 in0.0 mm 0.00 in/hr0.0 mm/hr 0.00 in0.0 mm
12:41 PM 57.2°F14.0°C 22.6°F-5.2°C 26% 9.0 mph NW14.5 kmh NW 12.5 mph20.1 kmh 24.89 in842.9 mb 0.00 in0.0 mm 0.00 in/hr0.0 mm/hr 0.00 in0.0 mm
12:46 PM 58.5°F14.7°C 22.8°F-5.1°C 25% 9.0 mph NW14.5 kmh NW 13.9 mph22.4 kmh 24.89 in842.9 mb 0.00 in0.0 mm 0.00 in/hr0.0 mm/hr 0.00 in0.0 mm
12:51 PM 59.4°F15.2°C 22.6°F-5.2°C 24% 11.0 mph NW17.7 kmh NW 16.8 mph27.0 kmh 24.89 in842.9 mb 0.00 in0.0 mm 0.00 in/hr0.0 mm/hr 0.00 in0.0 mm
12:56 PM 59.4°F15.2°C 22.6°F-5.2°C 24% 11.0 mph NW17.7 kmh NW 13.4 mph21.6 kmh 24.89 in842.9 mb 0.00 in0.0 mm 0.00 in/hr0.0 mm/hr 0.00 in0.0 mm
01:01 PM 59.7°F15.4°C 22.8°F-5.1°C 24% 9.0 mph NW14.5 kmh NW 13.9 mph22.4 kmh 24.86 in841.9 mb 0.00 in0.0 mm 0.00 in/hr0.0 mm/hr 0.00 in0.0 mm
01:06 PM 59.7°F15.4°C 22.8°F-5.1°C 24% 9.0 mph NW14.5 kmh NW 14.8 mph23.8 kmh 24.86 in841.9 mb 0.00 in0.0 mm 0.00 in/hr0.0 mm/hr 0.00 in0.0 mm
01:11 PM 59.9°F15.5°C 23.0°F-5.0°C 24% 10.0 mph NW16.1 kmh NW 14.3 mph23.0 kmh 24.86 in841.9 mb 0.00 in0.0 mm 0.00 in/hr0.0 mm/hr 0.00 in0.0 mm
01:16 PM 59.4°F15.2°C 22.6°F-5.2°C 24% 11.0 mph NW17.7 kmh NW 16.8 mph27.0 kmh 24.86 in841.9 mb 0.00 in0.0 mm 0.00 in/hr0.0 mm/hr 0.00 in0.0 mm
01:21 PM 59.9°F15.5°C 23.0°F-5.0°C 24% 11.0 mph NW17.7 kmh NW 15.4 mph24.8 kmh 24.86 in841.9 mb 0.00 in0.0 mm 0.00 in/hr0.0 mm/hr 0.00 in0.0 mm
01:26 PM 60.1°F15.6°C 23.2°F-4.9°C 24% 11.0 mph NW17.7 kmh NW 14.3 mph23.0 kmh 24.86 in841.9 mb 0.00 in0.0 mm 0.00 in/hr0.0 mm/hr 0.00 in0.0 mm
01:31 PM 60.1°F15.6°C 19.9°F-6.7°C 21% 11.0 mph NW17.7 kmh NW 16.3 mph26.2 kmh 24.86 in841.9 mb 0.00 in0.0 mm 0.00 in/hr0.0 mm/hr 0.00 in0.0 mm
01:36 PM 61.2°F16.2°C 20.8°F-6.2°C 21% 11.0 mph NW17.7 kmh NW 19.0 mph30.6 kmh 24.86 in841.9 mb 0.00 in0.0 mm 0.00 in/hr0.0 mm/hr 0.00 in0.0 mm
01:41 PM 61.9°F16.6°C 18.0°F-7.8°C 18% 10.0 mph NW16.1 kmh NW 13.0 mph20.9 kmh 24.86 in841.9 mb 0.00 in0.0 mm 0.00 in/hr0.0 mm/hr 0.00 in0.0 mm
01:46 PM 61.7°F16.5°C 15.1°F-9.4°C 16% 10.0 mph NW16.1 kmh NW 17.2 mph27.7 kmh 24.86 in841.9 mb 0.00 in0.0 mm 0.00 in/hr0.0 mm/hr 0.00 in0.0 mm
01:51 PM 61.7°F16.5°C 15.1°F-9.4°C 16% 12.0 mph NW19.3 kmh NW 16.3 mph26.2 kmh 24.86 in841.9 mb 0.00 in0.0 mm 0.00 in/hr0.0 mm/hr 0.00 in0.0 mm
01:56 PM 61.3°F16.3°C 14.7°F-9.6°C 16% 12.0 mph NNW19.3 kmh NNW 17.2 mph27.7 kmh 24.86 in841.9 mb 0.00 in0.0 mm 0.00 in/hr0.0 mm/hr 0.00 in0.0 mm
02:01 PM 62.2°F16.8°C 10.8°F-11.8°C 13% 11.0 mph NNW17.7 kmh NNW 18.1 mph29.1 kmh 24.86 in841.9 mb 0.00 in0.0 mm 0.00 in/hr0.0 mm/hr 0.00 in0.0 mm
02:06 PM 63.1°F17.3°C 11.5°F-11.4°C 13% 10.0 mph NNW16.1 kmh NNW 14.8 mph23.8 kmh 24.86 in841.9 mb 0.00 in0.0 mm 0.00 in/hr0.0 mm/hr 0.00 in0.0 mm
02:11 PM 63.7°F17.6°C -5537.2°C - 9.0 mph N14.5 kmh N 14.8 mph23.8 kmh 24.86 in841.9 mb 0.00 in0.0 mm 0.00 in/hr0.0 mm/hr 0.00 in0.0 mm
02:16 PM 64.0°F17.8°C -5537.2°C - 10.0 mph NW16.1 kmh NW 20.6 mph33.2 kmh 24.86 in841.9 mb 0.00 in0.0 mm 0.00 in/hr0.0 mm/hr 0.00 in0.0 mm
02:21 PM 64.0°F17.8°C -5537.2°C - 10.0 mph W16.1 kmh W 16.8 mph27.0 kmh 24.86 in841.9 mb 0.00 in0.0 mm 0.00 in/hr0.0 mm/hr 0.00 in0.0 mm
02:26 PM 61.9°F16.6°C 6.8°F-14.0°C 11% 12.0 mph W19.3 kmh W 21.5 mph34.6 kmh 24.86 in841.9 mb 0.00 in0.0 mm 0.00 in/hr0.0 mm/hr 0.00 in0.0 mm
02:31 PM 61.3°F16.3°C 6.4°F-14.2°C 11% 13.0 mph WNW20.9 kmh WNW 20.1 mph32.3 kmh 24.86 in841.9 mb 0.00 in0.0 mm 0.00 in/hr0.0 mm/hr 0.00 in0.0 mm
02:36 PM 61.2°F16.2°C 6.3°F-14.3°C 11% 11.0 mph WNW17.7 kmh WNW 16.3 mph26.2 kmh 24.86 in841.9 mb 0.00 in0.0 mm 0.00 in/hr0.0 mm/hr 0.00 in0.0 mm
02:41 PM 61.3°F16.3°C 6.4°F-14.2°C 11% 9.0 mph WNW14.5 kmh WNW 14.3 mph23.0 kmh 24.86 in841.9 mb 0.00 in0.0 mm 0.00 in/hr0.0 mm/hr 0.00 in0.0 mm
02:46 PM 61.3°F16.3°C 6.4°F-14.2°C 11% 7.0 mph W11.3 kmh W 9.6 mph15.4 kmh 24.86 in841.9 mb 0.00 in0.0 mm 0.00 in/hr0.0 mm/hr 0.00 in0.0 mm
02:51 PM 61.2°F16.2°C 6.3°F-14.3°C 11% 6.0 mph WSW9.7 kmh WSW 12.5 mph20.1 kmh 24.86 in841.9 mb 0.00 in0.0 mm 0.00 in/hr0.0 mm/hr 0.00 in0.0 mm
02:56 PM 61.2°F16.2°C 6.3°F-14.3°C 11% 6.0 mph WSW9.7 kmh WSW 10.5 mph16.9 kmh 24.86 in841.9 mb 0.00 in0.0 mm 0.00 in/hr0.0 mm/hr 0.00 in0.0 mm
03:01 PM 61.3°F16.3°C 6.4°F-14.2°C 11% 8.0 mph W12.9 kmh W 16.8 mph27.0 kmh 24.86 in841.9 mb 0.00 in0.0 mm 0.00 in/hr0.0 mm/hr 0.00 in0.0 mm
03:06 PM 61.2°F16.2°C 6.3°F-14.3°C 11% 10.0 mph W16.1 kmh W 13.9 mph22.4 kmh 24.86 in841.9 mb 0.00 in0.0 mm 0.00 in/hr0.0 mm/hr 0.00 in0.0 mm
03:11 PM 61.2°F16.2°C 6.3°F-14.3°C 11% 8.0 mph WSW12.9 kmh WSW 15.4 mph24.8 kmh 24.86 in841.9 mb 0.00 in0.0 mm 0.00 in/hr0.0 mm/hr 0.00 in0.0 mm
03:16 PM 59.0°F15.0°C 14.2°F-9.9°C 17% 9.0 mph WNW14.5 kmh WNW 15.9 mph25.6 kmh 24.86 in841.9 mb 0.00 in0.0 mm 0.00 in/hr0.0 mm/hr 0.00 in0.0 mm
03:21 PM 57.7°F14.3°C 22.1°F-5.5°C 25% 12.0 mph NW19.3 kmh NW 23.3 mph37.5 kmh 24.86 in841.9 mb 0.00 in0.0 mm 0.00 in/hr0.0 mm/hr 0.00 in0.0 mm
03:26 PM 58.1°F14.5°C 21.6°F-5.8°C 24% 14.0 mph NW22.5 kmh NW 21.5 mph34.6 kmh 24.86 in841.9 mb 0.00 in0.0 mm 0.00 in/hr0.0 mm/hr 0.00 in0.0 mm
03:31 PM 57.4°F14.1°C 22.8°F-5.1°C 26% 15.0 mph NW24.1 kmh NW 23.7 mph38.1 kmh 24.86 in841.9 mb 0.00 in0.0 mm 0.00 in/hr0.0 mm/hr 0.00 in0.0 mm
03:36 PM 57.0°F13.9°C 22.5°F-5.3°C 26% 16.0 mph NW25.7 kmh NW 24.8 mph39.9 kmh 24.86 in841.9 mb 0.00 in0.0 mm 0.00 in/hr0.0 mm/hr 0.00 in0.0 mm
03:42 PM 56.8°F13.8°C 23.2°F-4.9°C 27% 16.0 mph NW25.7 kmh NW 20.6 mph33.2 kmh 24.86 in841.9 mb 0.00 in0.0 mm 0.00 in/hr0.0 mm/hr 0.00 in0.0 mm
03:47 PM 56.5°F13.6°C 23.7°F-4.6°C 28% 15.0 mph NW24.1 kmh NW 19.9 mph32.0 kmh 24.86 in841.9 mb 0.00 in0.0 mm 0.00 in/hr0.0 mm/hr 0.00 in0.0 mm
03:52 PM 56.3°F13.5°C 24.4°F-4.2°C 29% 14.0 mph NW22.5 kmh NW 19.9 mph32.0 kmh 24.86 in841.9 mb 0.00 in0.0 mm 0.00 in/hr0.0 mm/hr 0.00 in0.0 mm
03:57 PM 55.9°F13.3°C 25.7°F-3.5°C 31% 14.0 mph NW22.5 kmh NW 20.6 mph33.2 kmh 24.86 in841.9 mb 0.00 in0.0 mm 0.00 in/hr0.0 mm/hr 0.00 in0.0 mm
04:02 PM 55.8°F13.2°C 25.5°F-3.6°C 31% 15.0 mph WNW24.1 kmh WNW 21.9 mph35.2 kmh 24.89 in842.9 mb 0.00 in0.0 mm 0.00 in/hr0.0 mm/hr 0.00 in0.0 mm
04:07 PM 55.6°F13.1°C 26.2°F-3.2°C 32% 16.0 mph WNW25.7 kmh WNW 24.4 mph39.3 kmh 24.89 in842.9 mb 0.00 in0.0 mm 0.00 in/hr0.0 mm/hr 0.00 in0.0 mm
04:12 PM 55.2°F12.9°C 26.6°F-3.0°C 33% 15.0 mph WNW24.1 kmh WNW 21.9 mph35.2 kmh 24.89 in842.9 mb 0.00 in0.0 mm 0.00 in/hr0.0 mm/hr 0.00 in0.0 mm
04:17 PM 55.0°F12.8°C 26.4°F-3.1°C 33% 14.0 mph WNW22.5 kmh WNW 20.1 mph32.3 kmh 24.89 in842.9 mb 0.00 in0.0 mm 0.00 in/hr0.0 mm/hr 0.00 in0.0 mm
04:22 PM 54.9°F12.7°C 27.0°F-2.8°C 34% 13.0 mph WNW20.9 kmh WNW 17.7 mph28.5 kmh 24.89 in842.9 mb 0.00 in0.0 mm 0.00 in/hr0.0 mm/hr 0.00 in0.0 mm
04:27 PM 54.7°F12.6°C 27.0°F-2.8°C 34% 12.0 mph WNW19.3 kmh WNW 18.6 mph29.9 kmh 24.89 in842.9 mb 0.00 in0.0 mm 0.00 in/hr0.0 mm/hr 0.00 in0.0 mm
04:32 PM 54.9°F12.7°C 25.5°F-3.6°C 32% 12.0 mph WNW19.3 kmh WNW 19.0 mph30.6 kmh 24.89 in842.9 mb 0.00 in0.0 mm 0.00 in/hr0.0 mm/hr 0.00 in0.0 mm
04:37 PM 55.0°F12.8°C 25.7°F-3.5°C 32% 12.0 mph WNW19.3 kmh WNW 17.7 mph28.5 kmh 24.89 in842.9 mb 0.00 in0.0 mm 0.00 in/hr0.0 mm/hr 0.00 in0.0 mm
04:42 PM 54.7°F12.6°C 25.3°F-3.7°C 32% 10.0 mph WNW16.1 kmh WNW 12.1 mph19.5 kmh 24.89 in842.9 mb 0.00 in0.0 mm 0.00 in/hr0.0 mm/hr 0.00 in0.0 mm
04:47 PM 54.7°F12.6°C 25.3°F-3.7°C 32% 8.0 mph WNW12.9 kmh WNW 12.1 mph19.5 kmh 24.89 in842.9 mb 0.00 in0.0 mm 0.00 in/hr0.0 mm/hr 0.00 in0.0 mm
04:52 PM 55.0°F12.8°C 25.0°F-3.9°C 31% 9.0 mph NW14.5 kmh NW 15.4 mph24.8 kmh 24.89 in842.9 mb 0.00 in0.0 mm 0.00 in/hr0.0 mm/hr 0.00 in0.0 mm
04:57 PM 54.9°F12.7°C 24.8°F-4.0°C 31% 11.0 mph NW17.7 kmh NW 15.9 mph25.6 kmh 24.89 in842.9 mb 0.00 in0.0 mm 0.00 in/hr0.0 mm/hr 0.00 in0.0 mm
05:02 PM 54.5°F12.5°C 25.3°F-3.7°C 32% 12.0 mph NW19.3 kmh NW 17.2 mph27.7 kmh 24.89 in842.9 mb 0.00 in0.0 mm 0.00 in/hr0.0 mm/hr 0.00 in0.0 mm
05:07 PM 54.0°F12.2°C 27.0°F-2.8°C 35% 13.0 mph NW20.9 kmh NW 16.8 mph27.0 kmh 24.89 in842.9 mb 0.00 in0.0 mm 0.00 in/hr0.0 mm/hr 0.00 in0.0 mm
05:12 PM 54.0°F12.2°C 27.0°F-2.8°C 35% 14.0 mph NW22.5 kmh NW 28.0 mph45.1 kmh 24.89 in842.9 mb 0.00 in0.0 mm 0.00 in/hr0.0 mm/hr 0.00 in0.0 mm
05:17 PM 53.2°F11.8°C 27.0°F-2.8°C 36% 16.0 mph WNW25.7 kmh WNW 24.8 mph39.9 kmh 24.92 in843.9 mb 0.00 in0.0 mm 0.00 in/hr0.0 mm/hr 0.00 in0.0 mm
05:22 PM 52.2°F11.2°C 28.0°F-2.2°C 39% 16.0 mph NW25.7 kmh NW 24.8 mph39.9 kmh 24.92 in843.9 mb 0.00 in0.0 mm 0.00 in/hr0.0 mm/hr 0.00 in0.0 mm
05:27 PM 51.6°F10.9°C 28.8°F-1.8°C 41% 17.0 mph NW27.4 kmh NW 24.8 mph39.9 kmh 24.92 in843.9 mb 0.00 in0.0 mm 0.00 in/hr0.0 mm/hr 0.00 in0.0 mm
05:32 PM 50.9°F10.5°C 29.8°F-1.2°C 44% 18.0 mph NW29.0 kmh NW 27.1 mph43.6 kmh 24.92 in843.9 mb 0.00 in0.0 mm 0.00 in/hr0.0 mm/hr 0.00 in0.0 mm
05:37 PM 49.6°F9.8°C 31.3°F-0.4°C 49% 16.0 mph NW25.7 kmh NW 22.8 mph36.7 kmh 24.92 in843.9 mb 0.00 in0.0 mm 0.00 in/hr0.0 mm/hr 0.00 in0.0 mm
05:42 PM 48.7°F9.3°C 33.3°F0.7°C 55% 16.0 mph NW25.7 kmh NW 24.4 mph39.3 kmh 24.92 in843.9 mb 0.00 in0.0 mm 0.00 in/hr0.0 mm/hr 0.00 in0.0 mm
05:47 PM 47.3°F8.5°C 36.1°F2.3°C 65% 16.0 mph WNW25.7 kmh WNW 26.2 mph42.2 kmh 24.92 in843.9 mb 0.00 in0.0 mm 0.00 in/hr0.0 mm/hr 0.00 in0.0 mm
05:52 PM 46.4°F8.0°C 37.6°F3.1°C 71% 14.0 mph WNW22.5 kmh WNW 19.5 mph31.4 kmh 24.92 in843.9 mb 0.00 in0.0 mm 0.00 in/hr0.0 mm/hr 0.00 in0.0 mm
05:57 PM 46.2°F7.9°C 37.0°F2.8°C 70% 13.0 mph WNW20.9 kmh WNW 21.9 mph35.2 kmh 24.92 in843.9 mb 0.00 in0.0 mm 0.00 in/hr0.0 mm/hr 0.00 in0.0 mm
06:02 PM 46.0°F7.8°C 35.2°F1.8°C 66% 14.0 mph WNW22.5 kmh WNW 21.9 mph35.2 kmh 24.95 in844.9 mb 0.00 in0.0 mm 0.00 in/hr0.0 mm/hr 0.00 in0.0 mm
06:07 PM 45.7°F7.6°C 34.5°F1.4°C 65% 15.0 mph WNW24.1 kmh WNW 24.4 mph39.3 kmh 24.95 in844.9 mb 0.00 in0.0 mm 0.00 in/hr0.0 mm/hr 0.00 in0.0 mm
06:12 PM 45.5°F7.5°C 34.9°F1.6°C 66% 16.0 mph WNW25.7 kmh WNW 24.4 mph39.3 kmh 24.95 in844.9 mb 0.00 in0.0 mm 0.00 in/hr0.0 mm/hr 0.00 in0.0 mm
06:17 PM 45.1°F7.3°C 34.9°F1.6°C 67% 16.0 mph NW25.7 kmh NW 25.7 mph41.4 kmh 24.98 in845.9 mb 0.00 in0.0 mm 0.00 in/hr0.0 mm/hr 0.00 in0.0 mm
06:22 PM 44.6°F7.0°C 35.1°F1.7°C 69% 16.0 mph WNW25.7 kmh WNW 22.8 mph36.7 kmh 24.98 in845.9 mb 0.00 in0.0 mm 0.00 in/hr0.0 mm/hr 0.00 in0.0 mm
06:27 PM 44.1°F6.7°C 34.5°F1.4°C 69% 15.0 mph WNW24.1 kmh WNW 20.1 mph32.3 kmh 24.98 in845.9 mb 0.00 in0.0 mm 0.00 in/hr0.0 mm/hr 0.00 in0.0 mm
06:32 PM 43.9°F6.6°C 35.1°F1.7°C 71% 14.0 mph WNW22.5 kmh WNW 19.9 mph32.0 kmh 24.98 in845.9 mb 0.00 in0.0 mm 0.00 in/hr0.0 mm/hr 0.00 in0.0 mm
06:37 PM 43.7°F6.5°C 35.6°F2.0°C 73% 12.0 mph WNW19.3 kmh WNW 17.2 mph27.7 kmh 24.98 in845.9 mb 0.00 in0.0 mm 0.00 in/hr0.0 mm/hr 0.00 in0.0 mm
06:42 PM 43.7°F6.5°C 36.0°F2.2°C 74% 10.0 mph NW16.1 kmh NW 12.5 mph20.1 kmh 24.98 in845.9 mb 0.00 in0.0 mm 0.00 in/hr0.0 mm/hr 0.00 in0.0 mm
06:47 PM 43.5°F6.4°C 36.9°F2.7°C 77% 10.0 mph NW16.1 kmh NW 16.8 mph27.0 kmh 24.98 in845.9 mb 0.00 in0.0 mm 0.00 in/hr0.0 mm/hr 0.00 in0.0 mm
06:52 PM 43.2°F6.2°C 37.0°F2.8°C 79% 9.0 mph NW14.5 kmh NW 12.1 mph19.5 kmh 24.98 in845.9 mb 0.00 in0.0 mm 0.00 in/hr0.0 mm/hr 0.00 in0.0 mm
06:57 PM 43.0°F6.1°C 36.9°F2.7°C 79% 9.0 mph NW14.5 kmh NW 15.4 mph24.8 kmh 24.98 in845.9 mb 0.00 in0.0 mm 0.00 in/hr0.0 mm/hr 0.00 in0.0 mm
07:02 PM 42.3°F5.7°C 36.9°F2.7°C 81% 9.0 mph NNW14.5 kmh NNW 13.0 mph20.9 kmh 25.01 in846.9 mb 0.00 in0.0 mm 0.00 in/hr0.0 mm/hr 0.00 in0.0 mm
07:07 PM 41.5°F5.3°C 36.7°F2.6°C 83% 8.0 mph N12.9 kmh N 12.1 mph19.5 kmh 25.01 in846.9 mb 0.00 in0.0 mm 0.00 in/hr0.0 mm/hr 0.00 in0.0 mm
07:12 PM 40.6°F4.8°C 36.1°F2.3°C 84% 8.0 mph N12.9 kmh N 11.2 mph18.0 kmh 25.01 in846.9 mb 0.00 in0.0 mm 0.00 in/hr0.0 mm/hr 0.00 in0.0 mm
07:17 PM 40.1°F4.5°C 35.6°F2.0°C 84% 9.0 mph N14.5 kmh N 13.9 mph22.4 kmh 25.01 in846.9 mb 0.00 in0.0 mm 0.00 in/hr0.0 mm/hr 0.00 in0.0 mm
07:22 PM 39.6°F4.2°C 34.9°F1.6°C 83% 9.0 mph NNW14.5 kmh NNW 13.9 mph22.4 kmh 25.01 in846.9 mb 0.00 in0.0 mm 0.00 in/hr0.0 mm/hr 0.00 in0.0 mm
07:27 PM 38.7°F3.7°C 33.6°F0.9°C 82% 9.0 mph NW14.5 kmh NW 15.9 mph25.6 kmh 25.01 in846.9 mb 0.00 in0.0 mm 0.00 in/hr0.0 mm/hr 0.00 in0.0 mm
07:32 PM 38.5°F3.6°C 34.2°F1.2°C 84% 9.0 mph NW14.5 kmh NW 15.4 mph24.8 kmh 25.04 in848.0 mb 0.00 in0.0 mm 0.00 in/hr0.0 mm/hr 0.00 in0.0 mm
07:37 PM 38.1°F3.4°C 34.0°F1.1°C 85% 7.0 mph NW11.3 kmh NW 10.1 mph16.3 kmh 25.04 in848.0 mb 0.00 in0.0 mm 0.00 in/hr0.0 mm/hr 0.00 in0.0 mm
07:42 PM 37.9°F3.3°C 33.8°F1.0°C 85% 5.0 mph W8.0 kmh W 6.7 mph10.8 kmh 25.04 in848.0 mb 0.00 in0.0 mm 0.00 in/hr0.0 mm/hr 0.00 in0.0 mm
07:47 PM 37.9°F3.3°C 34.2°F1.2°C 86% 4.0 mph WSW6.4 kmh WSW 5.8 mph9.3 kmh 25.04 in848.0 mb 0.00 in0.0 mm 0.00 in/hr0.0 mm/hr 0.00 in0.0 mm
07:52 PM 37.4°F3.0°C 33.6°F0.9°C 86% 3.0 mph WSW4.8 kmh WSW 6.3 mph10.1 kmh 25.04 in848.0 mb 0.00 in0.0 mm 0.00 in/hr0.0 mm/hr 0.00 in0.0 mm
07:57 PM 37.0°F2.8°C 33.6°F0.9°C 87% 4.0 mph 6.4 kmh 9.2 mph14.8 kmh 25.07 in849.0 mb 0.00 in0.0 mm 0.00 in/hr0.0 mm/hr 0.00 in0.0 mm
08:02 PM 36.5°F2.5°C 33.3°F0.7°C 88% 6.0 mph N9.7 kmh N 8.3 mph13.4 kmh 25.07 in849.0 mb 0.00 in0.0 mm 0.00 in/hr0.0 mm/hr 0.00 in0.0 mm
08:07 PM 36.1°F2.3°C 33.3°F0.7°C 89% 5.0 mph NNW8.0 kmh NNW 8.7 mph14.0 kmh 25.07 in849.0 mb 0.00 in0.0 mm 0.00 in/hr0.0 mm/hr 0.00 in0.0 mm
08:12 PM 35.6°F2.0°C 32.9°F0.5°C 90% 7.0 mph NNW11.3 kmh NNW 12.1 mph19.5 kmh 25.04 in848.0 mb 0.00 in0.0 mm 0.00 in/hr0.0 mm/hr 0.00 in0.0 mm
08:17 PM 35.1°F1.7°C 32.9°F0.5°C 92% 8.0 mph NW12.9 kmh NW 13.0 mph20.9 kmh 25.04 in848.0 mb 0.00 in0.0 mm 0.00 in/hr0.0 mm/hr 0.00 in0.0 mm
08:22 PM 34.5°F1.4°C 32.7°F0.4°C 93% 8.0 mph NW12.9 kmh NW 12.1 mph19.5 kmh 25.04 in848.0 mb 0.00 in0.0 mm 0.00 in/hr0.0 mm/hr 0.00 in0.0 mm
08:27 PM 34.2°F1.2°C 32.5°F0.3°C 94% 8.0 mph NW12.9 kmh NW 11.0 mph17.7 kmh 25.07 in849.0 mb 0.00 in0.0 mm 0.00 in/hr0.0 mm/hr 0.00 in0.0 mm
08:32 PM 34.0°F1.1°C 32.7°F0.4°C 95% 7.0 mph NW11.3 kmh NW 10.1 mph16.3 kmh 25.07 in849.0 mb 0.00 in0.0 mm 0.00 in/hr0.0 mm/hr 0.00 in0.0 mm
08:37 PM 33.6°F0.9°C 32.5°F0.3°C 96% 6.0 mph NW9.7 kmh NW 8.7 mph14.0 kmh 25.07 in849.0 mb 0.00 in0.0 mm 0.00 in/hr0.0 mm/hr 0.00 in0.0 mm
08:42 PM 33.3°F0.7°C 32.2°F0.1°C 96% 5.0 mph W8.0 kmh W 6.7 mph10.8 kmh 25.07 in849.0 mb 0.00 in0.0 mm 0.00 in/hr0.0 mm/hr 0.00 in0.0 mm
08:48 PM 33.1°F0.6°C 32.0°F0.0°C 96% 2.0 mph WSW3.2 kmh WSW 3.6 mph5.8 kmh 25.07 in849.0 mb 0.00 in0.0 mm 0.00 in/hr0.0 mm/hr 0.00 in0.0 mm
08:53 PM 33.1°F0.6°C 32.0°F0.0°C 96% 1.0 mph WSW1.6 kmh WSW 3.1 mph5.0 kmh 25.07 in849.0 mb 0.00 in0.0 mm 0.00 in/hr0.0 mm/hr 0.00 in0.0 mm
08:58 PM 33.1°F0.6°C 32.0°F0.0°C 96% 1.0 mph WSW1.6 kmh WSW 3.1 mph5.0 kmh 25.07 in849.0 mb 0.00 in0.0 mm 0.00 in/hr0.0 mm/hr 0.00 in0.0 mm
09:03 PM 33.1°F0.6°C 32.0°F0.0°C 96% Calm Calm 2.7 mph4.3 kmh 25.07 in849.0 mb 0.00 in0.0 mm 0.00 in/hr0.0 mm/hr 0.00 in0.0 mm
09:08 PM 32.9°F0.5°C 31.8°F-0.1°C 96% Calm Calm -- 25.07 in849.0 mb 0.00 in0.0 mm 0.00 in/hr0.0 mm/hr 0.00 in0.0 mm
09:13 PM 32.9°F0.5°C 31.8°F-0.1°C 96% Calm Calm -- 25.07 in849.0 mb 0.00 in0.0 mm 0.00 in/hr0.0 mm/hr 0.00 in0.0 mm
09:18 PM 32.9°F0.5°C 31.8°F-0.1°C 96% Calm Calm -- 25.07 in849.0 mb 0.00 in0.0 mm 0.00 in/hr0.0 mm/hr 0.00 in0.0 mm
09:23 PM 33.1°F0.6°C 32.0°F0.0°C 96% Calm Calm 3.1 mph5.0 kmh 25.07 in849.0 mb 0.00 in0.0 mm 0.00 in/hr0.0 mm/hr 0.00 in0.0 mm
09:28 PM 33.3°F0.7°C 32.2°F0.1°C 96% Calm Calm 3.1 mph5.0 kmh 25.07 in849.0 mb 0.00 in0.0 mm 0.00 in/hr0.0 mm/hr 0.00 in0.0 mm
09:33 PM 33.3°F0.7°C 32.2°F0.1°C 96% Calm Calm 2.7 mph4.3 kmh 25.07 in849.0 mb 0.00 in0.0 mm 0.00 in/hr0.0 mm/hr 0.00 in0.0 mm
09:38 PM 33.3°F0.7°C 32.2°F0.1°C 96% Calm Calm 3.1 mph5.0 kmh 25.07 in849.0 mb 0.00 in0.0 mm 0.00 in/hr0.0 mm/hr 0.00 in0.0 mm
09:43 PM 33.4°F0.8°C 32.4°F0.2°C 96% 1.0 mph WSW1.6 kmh WSW 4.0 mph6.4 kmh 25.07 in849.0 mb 0.00 in0.0 mm 0.00 in/hr0.0 mm/hr 0.00 in0.0 mm
09:48 PM 33.4°F0.8°C 32.4°F0.2°C 96% 1.0 mph WSW1.6 kmh WSW 3.1 mph5.0 kmh 25.07 in849.0 mb 0.00 in0.0 mm 0.00 in/hr0.0 mm/hr 0.00 in0.0 mm
09:53 PM 33.6°F0.9°C 32.9°F0.5°C 97% Calm Calm -- 25.07 in849.0 mb 0.00 in0.0 mm 0.00 in/hr0.0 mm/hr 0.00 in0.0 mm
09:58 PM 33.8°F1.0°C 33.1°F0.6°C 97% Calm Calm -- 25.07 in849.0 mb 0.00 in0.0 mm 0.00 in/hr0.0 mm/hr 0.00 in0.0 mm
10:03 PM 34.0°F1.1°C 33.3°F0.7°C 97% 1.0 mph WSW1.6 kmh WSW 3.1 mph5.0 kmh 25.07 in849.0 mb 0.00 in0.0 mm 0.00 in/hr0.0 mm/hr 0.00 in0.0 mm
10:08 PM 34.2°F1.2°C 33.4°F0.8°C 97% 2.0 mph WSW3.2 kmh WSW 4.5 mph7.2 kmh 25.07 in849.0 mb 0.00 in0.0 mm 0.00 in/hr0.0 mm/hr 0.00 in0.0 mm
10:13 PM 34.3°F1.3°C 33.6°F0.9°C 97% 2.0 mph WSW3.2 kmh WSW 4.5 mph7.2 kmh 25.07 in849.0 mb 0.00 in0.0 mm 0.00 in/hr0.0 mm/hr 0.00 in0.0 mm
10:18 PM 34.5°F1.4°C 33.8°F1.0°C 97% 1.0 mph WSW1.6 kmh WSW 4.5 mph7.2 kmh 25.07 in849.0 mb 0.00 in0.0 mm 0.00 in/hr0.0 mm/hr 0.00 in0.0 mm
10:23 PM 34.5°F1.4°C 33.8°F1.0°C 97% 1.0 mph WSW1.6 kmh WSW 4.0 mph6.4 kmh 25.07 in849.0 mb 0.00 in0.0 mm 0.00 in/hr0.0 mm/hr 0.00 in0.0 mm
10:28 PM 34.7°F1.5°C 34.0°F1.1°C 97% 1.0 mph WSW1.6 kmh WSW 4.0 mph6.4 kmh 25.07 in849.0 mb 0.00 in0.0 mm 0.00 in/hr0.0 mm/hr 0.00 in0.0 mm
10:33 PM 34.7°F1.5°C 34.0°F1.1°C 97% 2.0 mph WSW3.2 kmh WSW 5.8 mph9.3 kmh 25.07 in849.0 mb 0.00 in0.0 mm 0.00 in/hr0.0 mm/hr 0.00 in0.0 mm
10:38 PM 34.7°F1.5°C 33.6°F0.9°C 96% 4.0 mph SW6.4 kmh SW 6.3 mph10.1 kmh 25.07 in849.0 mb 0.00 in0.0 mm 0.00 in/hr0.0 mm/hr 0.00 in0.0 mm
10:43 PM 34.9°F1.6°C 33.8°F1.0°C 96% 4.0 mph SSW6.4 kmh SSW 5.4 mph8.7 kmh 25.07 in849.0 mb 0.00 in0.0 mm 0.00 in/hr0.0 mm/hr 0.00 in0.0 mm
10:48 PM 34.9°F1.6°C 33.8°F1.0°C 96% 3.0 mph S4.8 kmh S 4.0 mph6.4 kmh 25.07 in849.0 mb 0.00 in0.0 mm 0.00 in/hr0.0 mm/hr 0.00 in0.0 mm
10:53 PM 35.1°F1.7°C 34.0°F1.1°C 96% 1.0 mph S1.6 kmh S 3.6 mph5.8 kmh 25.07 in849.0 mb 0.00 in0.0 mm 0.00 in/hr0.0 mm/hr 0.00 in0.0 mm
10:58 PM 35.2°F1.8°C 34.2°F1.2°C 96% 2.0 mph S3.2 kmh S 4.0 mph6.4 kmh 25.07 in849.0 mb 0.00 in0.0 mm 0.00 in/hr0.0 mm/hr 0.00 in0.0 mm
11:03 PM 35.2°F1.8°C 34.2°F1.2°C 96% 3.0 mph SW4.8 kmh SW 5.8 mph9.3 kmh 25.07 in849.0 mb 0.00 in0.0 mm 0.00 in/hr0.0 mm/hr 0.00 in0.0 mm
11:08 PM 35.4°F1.9°C 34.3°F1.3°C 96% 3.0 mph WSW4.8 kmh WSW 5.4 mph8.7 kmh 25.07 in849.0 mb 0.00 in0.0 mm 0.00 in/hr0.0 mm/hr 0.00 in0.0 mm
11:13 PM 35.6°F2.0°C 34.3°F1.3°C 95% 4.0 mph WSW6.4 kmh WSW 6.9 mph11.1 kmh 25.07 in849.0 mb 0.00 in0.0 mm 0.00 in/hr0.0 mm/hr 0.00 in0.0 mm
11:18 PM 35.6°F2.0°C 34.0°F1.1°C 94% 4.0 mph WSW6.4 kmh WSW 7.4 mph11.9 kmh 25.07 in849.0 mb 0.00 in0.0 mm 0.00 in/hr0.0 mm/hr 0.00 in0.0 mm
11:23 PM 36.0°F2.2°C 33.1°F0.6°C 89% 4.0 mph WSW6.4 kmh WSW 6.7 mph10.8 kmh 25.07 in849.0 mb 0.00 in0.0 mm 0.00 in/hr0.0 mm/hr 0.00 in0.0 mm
11:28 PM 36.1°F2.3°C 32.9°F0.5°C 88% 5.0 mph WSW8.0 kmh WSW 7.8 mph12.6 kmh 25.07 in849.0 mb 0.00 in0.0 mm 0.00 in/hr0.0 mm/hr 0.00 in0.0 mm
11:33 PM 36.3°F2.4°C 32.2°F0.1°C 85% 5.0 mph WSW8.0 kmh WSW 8.3 mph13.4 kmh 25.07 in849.0 mb 0.00 in0.0 mm 0.00 in/hr0.0 mm/hr 0.00 in0.0 mm
11:38 PM 36.5°F2.5°C 31.5°F-0.3°C 82% 5.0 mph WSW8.0 kmh WSW 9.2 mph14.8 kmh 25.07 in849.0 mb 0.00 in0.0 mm 0.00 in/hr0.0 mm/hr 0.00 in0.0 mm
11:43 PM 36.1°F2.3°C 30.9°F-0.6°C 81% 6.0 mph SW9.7 kmh SW 11.2 mph18.0 kmh 25.07 in849.0 mb 0.00 in0.0 mm 0.00 in/hr0.0 mm/hr 0.00 in0.0 mm
11:48 PM 36.3°F2.4°C 30.7°F-0.7°C 80% 6.0 mph SW9.7 kmh SW 9.2 mph14.8 kmh 25.07 in849.0 mb 0.00 in0.0 mm 0.00 in/hr0.0 mm/hr 0.00 in0.0 mm
11:53 PM 36.3°F2.4°C 30.7°F-0.7°C 80% 5.0 mph SW8.0 kmh SW 6.7 mph10.8 kmh 25.07 in849.0 mb 0.00 in0.0 mm 0.00 in/hr0.0 mm/hr 0.00 in0.0 mm
11:58 PM 36.1°F2.3°C 30.6°F-0.8°C 80% 4.0 mph SW6.4 kmh SW 6.7 mph10.8 kmh 25.10 in850.0 mb 0.00 in0.0 mm 0.00 in/hr0.0 mm/hr 0.00 in0.0 mm